createdAt,value
2023-07-07T00:00:02.834Z,0
2023-07-07T00:15:02.325Z,0
2023-07-07T00:30:02.687Z,0
2023-07-07T00:45:03.347Z,0
2023-07-07T01:00:02.608Z,0
2023-07-07T01:15:03.067Z,0
2023-07-07T01:30:02.476Z,0
2023-07-07T01:45:02.879Z,0
2023-07-07T02:00:02.347Z,0
2023-07-07T02:15:02.755Z,0
2023-07-07T02:30:02.370Z,0
2023-07-07T02:45:02.613Z,0
2023-07-07T03:00:03.063Z,0
2023-07-07T03:15:02.496Z,0
2023-07-07T03:30:02.946Z,3
2023-07-07T03:45:02.376Z,8
2023-07-07T04:00:02.842Z,23
2023-07-07T04:15:02.362Z,41
2023-07-07T04:30:02.705Z,66
2023-07-07T04:45:03.374Z,95
2023-07-07T05:00:02.613Z,132
2023-07-07T05:15:03.062Z,164
2023-07-07T05:30:02.455Z,198
2023-07-07T05:45:02.901Z,231
2023-07-07T06:00:02.385Z,268
2023-07-07T06:15:02.819Z,302
2023-07-07T06:30:02.403Z,336
2023-07-07T06:45:02.674Z,368
2023-07-07T07:00:03.110Z,398
2023-07-07T07:15:02.567Z,430
2023-07-07T07:30:03.000Z,462
2023-07-07T07:45:02.451Z,491
2023-07-07T08:00:02.904Z,520
2023-07-07T08:15:02.428Z,542
2023-07-07T08:30:02.783Z,563
2023-07-07T08:45:03.404Z,600
2023-07-07T09:00:02.648Z,621
2023-07-07T09:15:03.105Z,639
2023-07-07T09:30:02.558Z,660
2023-07-07T09:45:03.000Z,693
2023-07-07T10:00:02.432Z,234
2023-07-07T10:15:02.880Z,721
2023-07-07T10:30:02.449Z,732
2023-07-07T10:45:02.788Z,735
2023-07-07T11:00:02.365Z,737
2023-07-07T11:15:02.660Z,726
2023-07-07T11:30:03.067Z,732
2023-07-07T11:45:02.527Z,729
2023-07-07T12:00:02.952Z,725
2023-07-07T12:15:04.055Z,722
2023-07-07T12:30:02.860Z,705
2023-07-07T12:45:02.475Z,696
2023-07-07T13:00:02.734Z,680
2023-07-07T13:15:03.199Z,665
2023-07-07T13:30:02.648Z,646
2023-07-07T13:45:03.028Z,622
2023-07-07T14:00:02.523Z,142
2023-07-07T14:15:02.916Z,558
2023-07-07T14:30:02.466Z,560
2023-07-07T14:45:02.762Z,534
2023-07-07T15:00:03.251Z,504
2023-07-07T15:15:02.652Z,480
2023-07-07T15:30:03.138Z,447
2023-07-07T15:45:02.534Z,419
2023-07-07T16:00:02.977Z,387
2023-07-07T16:15:02.510Z,353
2023-07-07T16:30:02.893Z,320
2023-07-07T16:45:02.506Z,283
2023-07-07T17:00:02.750Z,260
2023-07-07T17:15:03.209Z,221
2023-07-07T17:30:02.613Z,190
2023-07-07T17:45:03.066Z,160
2023-07-07T18:00:02.506Z,128
2023-07-07T18:15:02.942Z,98
2023-07-07T18:45:02.838Z,46
2023-07-07T19:00:02.266Z,8
2023-07-07T19:15:02.742Z,5
2023-07-07T19:30:03.173Z,0
2023-07-07T19:45:02.608Z,0
2023-07-07T20:00:03.033Z,0
2023-07-07T20:15:02.542Z,0
2023-07-07T20:30:02.949Z,0
2023-07-07T20:45:02.562Z,0
2023-07-07T21:00:02.780Z,0
2023-07-07T21:15:03.235Z,0
2023-07-07T21:30:02.681Z,0
2023-07-07T21:45:03.095Z,0
2023-07-07T22:00:02.561Z,0
2023-07-07T22:15:02.060Z,0
2023-07-07T22:30:02.557Z,0
2023-07-07T22:45:02.838Z,0
2023-07-07T23:00:02.277Z,0
2023-07-07T23:15:02.718Z,0
2023-07-07T23:30:03.328Z,0
2023-07-07T23:45:02.589Z,0
